createdAt,value
2022-10-17T00:03:21.799Z,12.37
2022-10-17T00:05:23.065Z,12.34
2022-10-17T00:07:24.164Z,12.35
2022-10-17T00:09:25.491Z,12.39
2022-10-17T00:11:26.919Z,12.31
2022-10-17T00:13:27.878Z,12.31
2022-10-17T00:15:28.951Z,12.5
2022-10-17T00:17:30.253Z,12.48
2022-10-17T00:19:31.657Z,12.55
2022-10-17T00:21:33.309Z,12.49
2022-10-17T00:23:34.542Z,12.41
2022-10-17T00:25:35.527Z,12.33
2022-10-17T00:27:36.581Z,12.13
2022-10-17T00:29:37.986Z,12.16
2022-10-17T00:31:39.643Z,12.13
2022-10-17T00:33:41.355Z,12.11
2022-10-17T00:35:42.888Z,12.02
2022-10-17T00:37:44.161Z,11.88
2022-10-17T00:39:45.191Z,11.85
2022-10-17T00:41:46.915Z,11.94
2022-10-17T00:43:48.509Z,11.91
2022-10-17T00:45:49.401Z,11.96
2022-10-17T00:47:50.432Z,12
2022-10-17T00:49:51.927Z,12.17
2022-10-17T00:51:53.178Z,12.13
2022-10-17T00:53:54.442Z,12.08
2022-10-17T00:55:56.143Z,12.19
2022-10-17T00:57:57.828Z,12.31
2022-10-17T00:59:58.850Z,12.31
2022-10-17T01:02:00.175Z,12.25
2022-10-17T01:04:01.942Z,12.44
2022-10-17T01:06:03.096Z,12.44
2022-10-17T01:08:04.130Z,12.45
2022-10-17T01:10:05.606Z,12.22
2022-10-17T01:12:06.671Z,12.06
2022-10-17T01:14:07.970Z,12.1
2022-10-17T01:16:09.405Z,12.16
2022-10-17T01:18:11.006Z,12.23
2022-10-17T01:20:11.948Z,12.2
2022-10-17T01:22:13.418Z,12.17
2022-10-17T01:24:14.409Z,12.1
2022-10-17T01:26:15.967Z,12.19
2022-10-17T01:28:17.202Z,11.93
2022-10-17T01:30:18.463Z,11.78
2022-10-17T01:32:19.859Z,11.76
2022-10-17T01:34:21.529Z,11.74
2022-10-17T01:36:22.478Z,11.66
2022-10-17T01:38:24.230Z,11.57
2022-10-17T01:40:25.296Z,11.59
2022-10-17T01:42:26.721Z,11.58
2022-10-17T01:46:29.142Z,11.78
2022-10-17T01:48:30.924Z,11.6
2022-10-17T01:50:32.346Z,11.52
2022-10-17T01:52:33.325Z,11.61
2022-10-17T01:54:34.847Z,11.58
2022-10-17T01:56:36.178Z,11.58
2022-10-17T01:58:37.383Z,11.52
2022-10-17T02:00:39.173Z,11.6
2022-10-17T02:02:40.126Z,11.55
2022-10-17T02:04:41.139Z,11.44
2022-10-17T02:06:42.960Z,11.3
2022-10-17T02:08:44.611Z,11.35
2022-10-17T02:10:45.895Z,11.28
2022-10-17T02:12:47.004Z,11.08
2022-10-17T02:14:48.881Z,10.99
2022-10-17T02:16:50.202Z,10.95
2022-10-17T02:18:51.785Z,10.89
2022-10-17T02:20:53.083Z,10.81
2022-10-17T02:22:54.732Z,10.75
2022-10-17T02:24:55.785Z,10.58
2022-10-17T02:26:57.387Z,10.47
2022-10-17T02:28:59.329Z,10.33
2022-10-17T02:31:01.033Z,10.33
2022-10-17T02:33:02.899Z,10.24
2022-10-17T02:35:04.313Z,10.16
2022-10-17T02:37:05.787Z,10.15
2022-10-17T02:39:07.114Z,10.25
2022-10-17T02:41:08.406Z,10.35
2022-10-17T02:43:09.602Z,10.31
2022-10-17T02:45:11.081Z,10.22
2022-10-17T02:47:12.735Z,10.14
2022-10-17T02:49:14.325Z,10.17
2022-10-17T02:51:15.398Z,10.11
2022-10-17T02:53:16.911Z,10.23
2022-10-17T02:55:18.458Z,10.1
2022-10-17T02:57:19.619Z,10.25
2022-10-17T02:59:21.182Z,10.41
2022-10-17T03:01:22.574Z,10.37
2022-10-17T03:03:23.717Z,10.29
2022-10-17T03:05:25.510Z,10.29
2022-10-17T03:07:26.866Z,10.49
2022-10-17T03:09:28.443Z,10.44
2022-10-17T03:11:29.702Z,10.32
2022-10-17T03:13:32.309Z,10.22
2022-10-17T03:15:32.568Z,10.2
2022-10-17T03:17:34.346Z,10.31
2022-10-17T03:19:35.956Z,10.27
2022-10-17T03:21:36.982Z,10.31
2022-10-17T03:23:38.285Z,10.39
2022-10-17T03:25:39.304Z,10.4
2022-10-17T03:27:41.016Z,10.5
2022-10-17T03:29:42.315Z,10.43
2022-10-17T03:31:43.831Z,10.58
2022-10-17T03:33:44.896Z,10.7
2022-10-17T03:35:46.008Z,10.65
2022-10-17T03:37:47.386Z,10.62
2022-10-17T03:39:49.028Z,10.6
2022-10-17T03:41:50.716Z,10.48
2022-10-17T03:43:52.638Z,10.39
2022-10-17T03:45:53.933Z,10.36
2022-10-17T03:47:54.951Z,10.34
2022-10-17T03:49:56.070Z,10.26
2022-10-17T03:51:57.431Z,10
2022-10-17T03:53:58.639Z,9.84
2022-10-17T03:56:00.201Z,9.98
2022-10-17T03:58:01.220Z,10.02
2022-10-17T04:00:02.464Z,10.12
2022-10-17T04:02:03.721Z,10.07
2022-10-17T04:04:05.062Z,10.03
2022-10-17T04:06:06.920Z,10.05
2022-10-17T04:10:09.200Z,9.96
2022-10-17T04:12:10.628Z,9.92
2022-10-17T04:14:11.679Z,9.91
2022-10-17T04:16:12.598Z,9.81
2022-10-17T04:18:14.398Z,9.79
2022-10-17T04:20:15.881Z,9.76
2022-10-17T04:22:17.360Z,9.72
2022-10-17T04:24:18.510Z,9.61
2022-10-17T04:26:19.842Z,9.73
2022-10-17T04:28:21.665Z,9.77
2022-10-17T04:30:23.034Z,9.83
2022-10-17T04:32:24.713Z,9.82
2022-10-17T04:34:26.563Z,9.75
2022-10-17T04:36:28.446Z,9.72
2022-10-17T04:38:29.771Z,9.8
2022-10-17T04:40:31.304Z,9.77
2022-10-17T04:42:32.500Z,9.78
2022-10-17T04:44:34.088Z,9.76
2022-10-17T04:46:35.469Z,9.78
2022-10-17T04:48:36.704Z,9.77
2022-10-17T04:50:37.880Z,9.94
2022-10-17T04:52:39.302Z,10
2022-10-17T04:54:40.465Z,9.93
2022-10-17T04:56:41.521Z,9.8
2022-10-17T04:58:42.905Z,9.75
2022-10-17T05:00:44.443Z,9.77
2022-10-17T05:01:36.309Z,9.79
2022-10-17T05:03:37.781Z,9.77
2022-10-17T05:05:39.405Z,9.72
2022-10-17T05:07:40.909Z,9.6
2022-10-17T05:09:42.052Z,9.49
2022-10-17T05:11:43.411Z,9.4
2022-10-17T05:13:45.339Z,9.43
2022-10-17T05:15:47.182Z,9.42
2022-10-17T05:17:48.629Z,9.41
2022-10-17T05:19:50.187Z,9.35
2022-10-17T05:21:51.297Z,9.25
2022-10-17T05:23:52.324Z,9.21
2022-10-17T05:25:53.929Z,9.2
2022-10-17T05:27:54.958Z,9.21
2022-10-17T05:29:56.178Z,9.27
2022-10-17T05:31:57.171Z,9.27
2022-10-17T05:33:58.820Z,9.25
2022-10-17T05:36:00.557Z,9.29
2022-10-17T05:38:02.453Z,9.33
2022-10-17T05:40:04.267Z,9.48
2022-10-17T05:42:06.139Z,9.54
2022-10-17T05:44:07.082Z,9.54
2022-10-17T05:46:08.223Z,9.56
2022-10-17T05:48:10.123Z,9.69
2022-10-17T05:50:11.045Z,9.63
2022-10-17T05:52:12.803Z,9.62
2022-10-17T05:54:13.889Z,9.57
2022-10-17T05:56:14.877Z,9.38
2022-10-17T05:58:21.694Z,9.33
2022-10-17T06:00:17.694Z,9.42
2022-10-17T06:02:19.180Z,9.59
2022-10-17T06:04:21.007Z,9.68
2022-10-17T06:06:22.128Z,9.67
2022-10-17T06:08:23.242Z,9.66
2022-10-17T06:10:24.306Z,9.61
2022-10-17T06:12:25.788Z,9.59
2022-10-17T06:14:26.775Z,9.58
2022-10-17T06:16:27.870Z,9.76
2022-10-17T06:18:29.614Z,9.87
2022-10-17T06:20:30.650Z,9.93
2022-10-17T06:22:32.057Z,9.95
2022-10-17T06:24:32.815Z,9.97
2022-10-17T06:26:34.473Z,10.03
2022-10-17T06:28:36.373Z,10.21
2022-10-17T06:30:37.957Z,10.95
2022-10-17T06:32:39.059Z,11.47
2022-10-17T06:34:40.912Z,11.77
2022-10-17T06:36:42.278Z,11.13
2022-10-17T06:38:44.163Z,11.59
2022-10-17T06:40:45.654Z,11.8
2022-10-17T06:42:47.428Z,12.2
2022-10-17T06:44:49.193Z,12.27
2022-10-17T06:46:50.606Z,11.49
2022-10-17T06:48:51.970Z,11.73
2022-10-17T06:50:53.726Z,11.93
2022-10-17T06:52:54.744Z,12.18
2022-10-17T06:54:56.310Z,12.52
2022-10-17T06:56:58.137Z,12.31
2022-10-17T06:58:59.022Z,11.72
2022-10-17T07:01:00.774Z,12.38
2022-10-17T07:03:01.280Z,12.79
2022-10-17T07:05:02.552Z,13.21
2022-10-17T07:07:04.346Z,13.1
2022-10-17T07:11:06.710Z,13.62
2022-10-17T07:13:08.222Z,14.18
2022-10-17T07:15:09.190Z,14.33
2022-10-17T07:17:10.794Z,14.21
2022-10-17T07:19:11.657Z,14.15
2022-10-17T07:21:13.068Z,14.11
2022-10-17T07:23:14.060Z,14.26
2022-10-17T07:25:15.280Z,14.61
2022-10-17T07:27:16.927Z,15.11
2022-10-17T07:29:17.786Z,15.35
2022-10-17T07:31:18.669Z,15.37
2022-10-17T07:33:19.575Z,15.59
2022-10-17T07:35:20.827Z,15.97
2022-10-17T07:37:21.861Z,16.14
2022-10-17T07:39:23.162Z,15.46
2022-10-17T07:41:24.376Z,14.37
2022-10-17T07:43:25.913Z,14.25
2022-10-17T07:45:27.176Z,14.74
2022-10-17T07:47:28.704Z,15.13
2022-10-17T07:49:30.212Z,14.89
2022-10-17T07:51:31.139Z,14.91
2022-10-17T07:53:32.629Z,15.02
2022-10-17T07:55:34.026Z,14.47
2022-10-17T07:57:35.736Z,13.95
2022-10-17T07:59:36.668Z,14.44
2022-10-17T08:01:37.487Z,14.54
2022-10-17T08:03:39.066Z,15.07
2022-10-17T08:05:40.119Z,15.42
2022-10-17T08:07:41.467Z,15.76
2022-10-17T08:09:42.655Z,15.88
2022-10-17T08:11:44.353Z,16.22
2022-10-17T08:13:45.563Z,16.29
2022-10-17T08:15:47.087Z,16.31
2022-10-17T08:17:48.358Z,16.57
2022-10-17T08:19:49.811Z,16.29
2022-10-17T08:21:50.693Z,16.23
2022-10-17T08:23:51.768Z,15.81
2022-10-17T08:25:52.929Z,16.32
2022-10-17T08:27:55.097Z,16.99
2022-10-17T08:29:57.274Z,16.78
2022-10-17T08:32:01.025Z,16.58
2022-10-17T08:33:59.979Z,16.89
2022-10-17T08:36:01.009Z,17.29
2022-10-17T08:38:02.492Z,17.44
2022-10-17T08:40:03.879Z,17.82
2022-10-17T08:42:05.381Z,17.57
2022-10-17T08:44:06.887Z,17.31
2022-10-17T08:46:09.606Z,17.48
2022-10-17T08:48:10.585Z,17.43
2022-10-17T08:50:12.304Z,17.54
2022-10-17T08:52:13.919Z,17.46
2022-10-17T08:54:15.347Z,17.88
2022-10-17T08:56:19.650Z,17.84
2022-10-17T08:58:18.334Z,17.8
2022-10-17T09:00:19.175Z,18.1
2022-10-17T09:02:20.615Z,18.31
2022-10-17T09:04:21.511Z,17.79
2022-10-17T09:06:22.715Z,17.56
2022-10-17T09:08:23.617Z,17.56
2022-10-17T09:10:24.837Z,18.11
2022-10-17T09:12:26.279Z,17.9
2022-10-17T09:14:27.691Z,18.33
2022-10-17T09:16:29.094Z,18.77
2022-10-17T09:18:30.726Z,19.13
2022-10-17T09:20:32.345Z,19.47
2022-10-17T09:22:33.899Z,19.56
2022-10-17T09:24:35.330Z,19.61
2022-10-17T09:26:36.220Z,19.95
2022-10-17T09:28:37.763Z,20.2
2022-10-17T09:30:45.773Z,20.12
2022-10-17T09:32:39.793Z,19.96
2022-10-17T09:34:40.653Z,19.89
2022-10-17T09:36:41.841Z,20.05
2022-10-17T09:38:43.285Z,19.69
2022-10-17T09:40:44.829Z,19.47
2022-10-17T09:42:45.650Z,19.85
2022-10-17T09:44:46.504Z,20.09
2022-10-17T09:46:47.854Z,20.34
2022-10-17T09:48:51.093Z,20.32
2022-10-17T09:50:53.893Z,20.39
2022-10-17T09:52:50.686Z,20.57
2022-10-17T09:54:52.339Z,20.58
2022-10-17T09:56:53.863Z,20.82
2022-10-17T09:58:55.005Z,20.5
2022-10-17T10:00:56.169Z,20.8
2022-10-17T10:02:57.401Z,20.3
2022-10-17T10:05:04.919Z,20.19
2022-10-17T10:06:59.521Z,20.56
2022-10-17T10:09:00.367Z,20.81
2022-10-17T10:11:02.646Z,21.34
2022-10-17T10:13:04.166Z,21.66
2022-10-17T10:15:05.756Z,21.87
2022-10-17T10:17:08.038Z,21.87
2022-10-17T10:19:09.608Z,22.26
2022-10-17T10:21:10.719Z,22.74
2022-10-17T10:23:12.906Z,22.76
2022-10-17T10:25:14.565Z,22.45
2022-10-17T10:27:16.168Z,22.48
2022-10-17T10:29:17.691Z,22.67
2022-10-17T10:31:18.815Z,22.27
2022-10-17T10:33:20.091Z,22.24
2022-10-17T10:35:21.234Z,22.63
2022-10-17T10:37:22.033Z,22.56
2022-10-17T10:39:22.850Z,22.27
2022-10-17T10:41:24.601Z,22.03
2022-10-17T10:43:25.447Z,21.8
2022-10-17T10:45:46.768Z,22.07
2022-10-17T10:47:28.925Z,22.42
2022-10-17T10:49:30.346Z,22.76
2022-10-17T10:51:31.304Z,22.83
2022-10-17T10:53:35.092Z,23.17
2022-10-17T10:55:33.829Z,23.2
2022-10-17T10:57:35.508Z,23.43
2022-10-17T10:59:37.067Z,23.69
2022-10-17T11:01:38.469Z,23.43
2022-10-17T11:05:40.833Z,23.24
2022-10-17T11:07:42.387Z,23.54
2022-10-17T11:09:43.717Z,23.74
2022-10-17T11:11:44.964Z,23.94
2022-10-17T11:13:47.014Z,23.86
2022-10-17T11:15:47.236Z,23.83
2022-10-17T11:17:48.620Z,23.82
2022-10-17T11:19:49.413Z,24.12
2022-10-17T11:21:51.127Z,24.06
2022-10-17T11:23:52.077Z,24.11
2022-10-17T11:25:53.261Z,24.49
2022-10-17T11:27:54.163Z,24.78
2022-10-17T11:29:55.370Z,24.99
2022-10-17T11:31:57.010Z,24.7
2022-10-17T11:33:58.257Z,24.4
2022-10-17T11:35:59.276Z,24.55
2022-10-17T11:38:00.780Z,24.52
2022-10-17T11:40:02.142Z,24.34
2022-10-17T11:42:04.190Z,24.53
2022-10-17T11:44:04.223Z,24.51
2022-10-17T11:46:05.277Z,24.79
2022-10-17T11:46:48.921Z,24.8
2022-10-17T11:48:50.427Z,25.02
2022-10-17T11:52:56.220Z,25.12
2022-10-17T11:54:54.498Z,24.64
2022-10-17T11:56:56.280Z,24.75
2022-10-17T11:58:57.842Z,25.14
2022-10-17T12:00:58.705Z,25.28
2022-10-17T12:03:00.145Z,25.43
2022-10-17T12:05:01.517Z,25.44
2022-10-17T12:07:02.524Z,25.65
2022-10-17T12:09:03.277Z,25.46
2022-10-17T12:11:04.453Z,25.66
2022-10-17T12:13:05.166Z,25.58
2022-10-17T12:15:06.343Z,25.56
2022-10-17T12:17:07.665Z,25.72
2022-10-17T12:19:08.663Z,24.98
2022-10-17T12:21:09.719Z,25.23
2022-10-17T12:23:11.069Z,25.01
2022-10-17T12:25:12.831Z,25.27
2022-10-17T12:27:14.023Z,25.63
2022-10-17T12:29:14.831Z,25.25
2022-10-17T12:31:15.780Z,25.25
2022-10-17T12:33:17.010Z,25.81
2022-10-17T12:35:17.817Z,25.6
2022-10-17T12:37:19.522Z,25.18
2022-10-17T12:39:20.588Z,25.61
2022-10-17T12:41:21.762Z,25.35
2022-10-17T12:43:23.164Z,25.41
2022-10-17T12:47:26.429Z,25.42
2022-10-17T12:51:36.585Z,25.84
2022-10-17T12:53:30.370Z,25.45
2022-10-17T12:55:30.900Z,25.3
2022-10-17T12:57:32.398Z,25.33
2022-10-17T12:59:33.598Z,25.34
2022-10-17T13:01:35.218Z,25.35
2022-10-17T13:03:36.395Z,25.32
2022-10-17T13:05:37.413Z,25.46
2022-10-17T13:07:38.801Z,25.46
2022-10-17T13:09:39.657Z,25.71
2022-10-17T13:11:40.472Z,25.72
2022-10-17T13:13:41.927Z,25.3
2022-10-17T13:15:43.606Z,25.39
2022-10-17T13:17:44.634Z,25.32
2022-10-17T13:19:46.384Z,25.14
2022-10-17T13:21:47.673Z,25.1
2022-10-17T13:23:48.748Z,25.21
2022-10-17T13:25:50.091Z,25.28
2022-10-17T13:27:51.688Z,25.25
2022-10-17T13:29:52.806Z,24.9
2022-10-17T13:31:54.490Z,25.1
2022-10-17T13:33:56.062Z,25.24
2022-10-17T13:36:01.159Z,25.37
2022-10-17T13:37:58.326Z,25.66
2022-10-17T13:40:06.923Z,25.61
2022-10-17T13:42:01.295Z,25.02
2022-10-17T13:44:02.796Z,25.2
2022-10-17T13:46:13.974Z,24.87
2022-10-17T13:48:05.187Z,24.85
2022-10-17T13:50:09.490Z,24.65
2022-10-17T13:52:07.771Z,24.45
2022-10-17T13:54:09.315Z,24.43
2022-10-17T13:56:27.164Z,24.57
2022-10-17T13:58:11.160Z,24.42
2022-10-17T14:00:12.648Z,24.16
2022-10-17T14:02:13.796Z,24.46
2022-10-17T14:04:20.017Z,24.57
2022-10-17T14:06:16.001Z,24.09
2022-10-17T14:08:21.994Z,24.26
2022-10-17T14:10:18.815Z,24.57
2022-10-17T14:12:19.845Z,24.33
2022-10-17T14:14:21.449Z,24.41
2022-10-17T14:16:23.030Z,24.4
2022-10-17T14:18:24.478Z,24.22
2022-10-17T14:22:26.795Z,24.33
2022-10-17T14:24:28.376Z,23.74
2022-10-17T14:26:29.194Z,23.64
2022-10-17T14:28:30.717Z,23.47
2022-10-17T14:30:52.035Z,23.59
2022-10-17T14:34:35.220Z,23.52
2022-10-17T14:36:36.696Z,23.4
2022-10-17T14:38:38.358Z,23.38
2022-10-17T14:40:40.088Z,23.67
2022-10-17T14:42:40.973Z,23.46
2022-10-17T14:44:41.877Z,23.6
2022-10-17T14:46:44.699Z,23.69
2022-10-17T14:48:44.411Z,23.79
2022-10-17T14:52:47.083Z,23.73
2022-10-17T14:54:48.503Z,23.67
2022-10-17T14:56:49.834Z,23.83
2022-10-17T14:58:51.241Z,24.13
2022-10-17T15:00:52.374Z,24.15
2022-10-17T15:02:53.734Z,23.83
2022-10-17T15:04:55.076Z,23.68
2022-10-17T15:06:56.824Z,23.55
2022-10-17T15:08:57.972Z,23.62
2022-10-17T15:10:58.924Z,23.84
2022-10-17T15:13:16.346Z,23.81
2022-10-17T15:15:01.553Z,23.74
2022-10-17T15:17:02.856Z,23.34
2022-10-17T15:19:04.364Z,23.21
2022-10-17T15:21:17.645Z,23.31
2022-10-17T15:23:07.362Z,23.27
2022-10-17T15:25:08.788Z,23.09
2022-10-17T15:27:09.943Z,22.81
2022-10-17T15:29:11.097Z,22.64
2022-10-17T15:31:12.494Z,22.39
2022-10-17T15:33:13.903Z,22.3
2022-10-17T15:35:15.332Z,22.24
2022-10-17T15:37:17.050Z,22.32
2022-10-17T15:39:18.431Z,22.54
2022-10-17T15:41:19.471Z,22.5
2022-10-17T15:43:20.963Z,22.66
2022-10-17T15:45:22.495Z,22.67
2022-10-17T15:47:23.730Z,22.79
2022-10-17T15:49:25.051Z,22.79
2022-10-17T15:51:26.171Z,22.55
2022-10-17T15:53:27.003Z,22.37
2022-10-17T15:55:28.036Z,22.23
2022-10-17T15:57:29.794Z,22.08
2022-10-17T15:59:30.426Z,21.65
2022-10-17T16:01:31.612Z,21.65
2022-10-17T16:03:32.832Z,21.69
2022-10-17T16:05:34.319Z,21.52
2022-10-17T16:07:35.238Z,21.33
2022-10-17T16:09:36.715Z,21.13
2022-10-17T16:11:37.829Z,20.84
2022-10-17T16:13:38.823Z,20.6
2022-10-17T16:15:40.518Z,20.55
2022-10-17T16:17:42.045Z,20.42
2022-10-17T16:19:43.412Z,20.27
2022-10-17T16:21:44.843Z,20.09
2022-10-17T16:23:46.248Z,19.79
2022-10-17T16:25:47.247Z,19.51
2022-10-17T16:27:48.499Z,19.33
2022-10-17T16:29:49.694Z,19.13
2022-10-17T16:31:51.336Z,19
2022-10-17T16:33:52.821Z,18.87
2022-10-17T16:35:54.523Z,18.82
2022-10-17T16:37:56.260Z,18.73
2022-10-17T16:39:57.155Z,18.55
2022-10-17T16:41:58.862Z,18.44
2022-10-17T16:46:01.018Z,18.5
2022-10-17T16:48:02.727Z,18.36
2022-10-17T16:50:04.258Z,18.23
2022-10-17T16:52:05.773Z,18.25
2022-10-17T16:54:06.708Z,18.16
2022-10-17T16:56:07.555Z,18.15
2022-10-17T16:58:09.164Z,18.22
2022-10-17T17:00:10.445Z,18.16
2022-10-17T17:02:12.376Z,18.15
2022-10-17T17:04:13.175Z,18.07
2022-10-17T17:06:14.435Z,18.18
2022-10-17T17:08:15.940Z,18.17
2022-10-17T17:10:17.667Z,18.05
2022-10-17T17:12:19.178Z,17.87
2022-10-17T17:14:20.551Z,17.79
2022-10-17T17:16:21.768Z,17.62
2022-10-17T17:18:22.849Z,17.54
2022-10-17T17:20:24.514Z,17.42
2022-10-17T17:22:25.701Z,17.33
2022-10-17T17:24:27.059Z,17.18
2022-10-17T17:26:28.421Z,17.04
2022-10-17T17:28:29.693Z,16.95
2022-10-17T17:30:31.102Z,16.94
2022-10-17T17:32:32.935Z,16.98
2022-10-17T17:34:34.768Z,16.86
2022-10-17T17:36:35.858Z,16.78
2022-10-17T17:38:37.149Z,16.78
2022-10-17T17:40:38.467Z,16.83
2022-10-17T17:42:39.507Z,16.78
2022-10-17T17:44:40.582Z,16.72
2022-10-17T17:46:41.562Z,16.67
2022-10-17T17:48:43.036Z,16.55
2022-10-17T17:50:44.417Z,16.56
2022-10-17T17:52:45.709Z,16.64
2022-10-17T17:54:46.854Z,16.62
2022-10-17T17:56:47.858Z,16.71
2022-10-17T17:58:48.928Z,16.72
2022-10-17T18:00:50.232Z,16.61
2022-10-17T18:02:51.853Z,16.48
2022-10-17T18:04:52.934Z,16.25
2022-10-17T18:06:54.156Z,16.07
2022-10-17T18:08:55.858Z,15.92
2022-10-17T18:10:57.127Z,15.86
2022-10-17T18:12:58.295Z,15.82
2022-10-17T18:15:00.046Z,15.68
2022-10-17T18:17:01.614Z,15.6
2022-10-17T18:19:04.308Z,15.54
2022-10-17T18:21:04.299Z,15.44
2022-10-17T18:23:05.915Z,15.44
2022-10-17T18:27:08.737Z,15.38
2022-10-17T18:29:09.648Z,15.29
2022-10-17T18:31:10.818Z,15.29
2022-10-17T18:31:54.583Z,15.27
2022-10-17T18:33:56.233Z,15.25
2022-10-17T18:35:58.369Z,15.16
2022-10-17T18:37:59.237Z,15.07
2022-10-17T18:40:00.924Z,14.93
2022-10-17T18:42:02.352Z,14.85
2022-10-17T18:44:04.127Z,14.87
2022-10-17T18:46:04.995Z,14.88
2022-10-17T18:48:06.356Z,14.85
2022-10-17T18:50:08.123Z,14.91
2022-10-17T18:52:09.728Z,14.98
2022-10-17T18:54:11.088Z,14.93
2022-10-17T18:56:12.763Z,14.92
2022-10-17T18:58:13.677Z,14.9
2022-10-17T19:00:15.069Z,14.86
2022-10-17T19:02:16.108Z,14.92
2022-10-17T19:04:17.722Z,14.91
2022-10-17T19:06:19.248Z,14.97
2022-10-17T19:08:20.922Z,14.94
2022-10-17T19:10:22.407Z,14.85
2022-10-17T19:12:23.702Z,14.89
2022-10-17T19:14:25.587Z,14.84
2022-10-17T19:16:26.766Z,14.81
2022-10-17T19:18:28.406Z,14.82
2022-10-17T19:20:29.732Z,14.78
2022-10-17T19:22:30.990Z,14.71
2022-10-17T19:24:32.024Z,14.62
2022-10-17T19:26:33.078Z,14.62
2022-10-17T19:28:34.643Z,14.58
2022-10-17T19:30:36.470Z,14.56
2022-10-17T19:32:38.257Z,14.53
2022-10-17T19:34:39.835Z,14.5
2022-10-17T19:36:41.528Z,14.39
2022-10-17T19:38:42.950Z,14.3
2022-10-17T19:40:44.790Z,14.22
2022-10-17T19:42:46.448Z,14.26
2022-10-17T19:44:48.103Z,14.27
2022-10-17T19:46:49.704Z,14.31
2022-10-17T19:48:51.073Z,14.37
2022-10-17T19:50:52.006Z,14.36
2022-10-17T19:52:53.390Z,14.32
2022-10-17T19:54:54.489Z,14.25
2022-10-17T19:56:55.443Z,14.17
2022-10-17T19:58:56.368Z,14.16
2022-10-17T20:00:58.238Z,14.06
2022-10-17T20:02:59.162Z,14.06
2022-10-17T20:05:17.367Z,14.11
2022-10-17T20:07:02.025Z,14.08
2022-10-17T20:09:03.284Z,14.08
2022-10-17T20:11:04.214Z,13.99
2022-10-17T20:13:05.881Z,13.98
2022-10-17T20:15:07.587Z,13.96
2022-10-17T20:17:09.342Z,13.98
2022-10-17T20:19:10.752Z,13.91
2022-10-17T20:21:12.014Z,13.95
2022-10-17T20:23:13.557Z,13.93
2022-10-17T20:25:15.155Z,13.87
2022-10-17T20:27:16.413Z,13.84
2022-10-17T20:29:17.874Z,13.85
2022-10-17T20:31:18.980Z,13.88
2022-10-17T20:33:19.844Z,13.81
2022-10-17T20:35:21.601Z,13.77
2022-10-17T20:37:23.187Z,13.76
2022-10-17T20:39:24.510Z,13.83
2022-10-17T20:41:25.841Z,13.74
2022-10-17T20:45:32.619Z,13.73
2022-10-17T20:47:40.110Z,13.57
2022-10-17T20:49:31.001Z,13.52
2022-10-17T20:51:32.139Z,13.49
2022-10-17T20:53:36.367Z,13.45
2022-10-17T20:55:35.237Z,13.44
2022-10-17T20:57:36.752Z,13.49
2022-10-17T20:59:38.581Z,13.56
2022-10-17T21:01:40.227Z,13.71
2022-10-17T21:03:43.805Z,13.76
2022-10-17T21:05:43.393Z,13.71
2022-10-17T21:07:44.289Z,13.61
2022-10-17T21:09:45.302Z,13.55
2022-10-17T21:11:46.591Z,13.54
2022-10-17T21:13:47.603Z,13.53
2022-10-17T21:15:48.652Z,13.64
2022-10-17T21:17:50.073Z,13.64
2022-10-17T21:19:51.272Z,13.56
2022-10-17T21:21:53.070Z,13.5
2022-10-17T21:23:54.097Z,13.44
2022-10-17T21:25:55.486Z,13.48
2022-10-17T21:27:57.038Z,13.44
2022-10-17T21:29:58.371Z,13.49
2022-10-17T21:31:59.958Z,13.33
2022-10-17T21:34:01.032Z,13.29
2022-10-17T21:36:02.237Z,13.31
2022-10-17T21:38:03.752Z,13.46
2022-10-17T21:40:04.670Z,13.37
2022-10-17T21:42:06.131Z,13.32
2022-10-17T21:44:07.422Z,13.32
2022-10-17T21:46:08.724Z,13.27
2022-10-17T21:48:12.822Z,13.17
2022-10-17T21:50:11.659Z,13.17
2022-10-17T21:52:12.789Z,13.16
2022-10-17T21:54:14.161Z,13
2022-10-17T21:56:15.969Z,12.93
2022-10-17T21:58:17.023Z,12.87
2022-10-17T22:00:18.857Z,12.82
2022-10-17T22:02:20.106Z,12.75
2022-10-17T22:04:21.158Z,12.63
2022-10-17T22:06:39.087Z,12.54
2022-10-17T22:08:23.773Z,12.48
2022-10-17T22:10:24.707Z,12.55
2022-10-17T22:12:26.292Z,12.56
2022-10-17T22:14:27.598Z,12.61
2022-10-17T22:16:29.242Z,12.54
2022-10-17T22:18:30.590Z,12.51
2022-10-17T22:20:32.474Z,12.38
2022-10-17T22:22:33.963Z,12.29
2022-10-17T22:24:35.743Z,12.26
2022-10-17T22:26:37.367Z,12.28
2022-10-17T22:28:38.892Z,12.3
2022-10-17T22:30:40.731Z,12.37
2022-10-17T22:32:42.743Z,12.35
2022-10-17T22:34:43.813Z,12.26
2022-10-17T22:36:44.865Z,12.29
2022-10-17T22:38:46.288Z,12.33
2022-10-17T22:40:47.296Z,12.37
2022-10-17T22:42:48.307Z,12.32
2022-10-17T22:44:49.332Z,12.29
2022-10-17T22:46:50.774Z,12.24
2022-10-17T22:48:51.866Z,12.15
2022-10-17T22:50:52.896Z,12.27
2022-10-17T22:52:53.830Z,12.42
2022-10-17T22:54:54.989Z,12.39
2022-10-17T22:56:56.858Z,12.47
2022-10-17T22:58:57.778Z,12.51
2022-10-17T23:00:59.417Z,12.46
2022-10-17T23:03:00.771Z,12.32
2022-10-17T23:05:01.735Z,12.21
2022-10-17T23:09:04.355Z,11.95
2022-10-17T23:11:05.926Z,11.84
2022-10-17T23:13:07.818Z,11.84
2022-10-17T23:15:09.317Z,12.03
2022-10-17T23:17:11.071Z,12.03
2022-10-17T23:19:12.273Z,12.1
2022-10-17T23:21:13.226Z,12.16
2022-10-17T23:23:14.989Z,12.27
2022-10-17T23:25:16.523Z,12.24
2022-10-17T23:27:18.265Z,12.05
2022-10-17T23:29:19.922Z,12.01
2022-10-17T23:31:21.305Z,11.89
2022-10-17T23:33:22.776Z,11.83
2022-10-17T23:35:24.291Z,11.82
2022-10-17T23:37:25.588Z,11.8
2022-10-17T23:39:27.491Z,11.76
2022-10-17T23:41:28.588Z,11.81
2022-10-17T23:43:30.399Z,11.75
2022-10-17T23:45:33.463Z,11.74
2022-10-17T23:47:33.593Z,11.79
2022-10-17T23:49:34.482Z,11.77
2022-10-17T23:51:36.274Z,11.71
2022-10-17T23:53:37.976Z,11.78
2022-10-17T23:55:39.513Z,11.8
2022-10-17T23:57:41.046Z,11.77
2022-10-17T23:59:42.509Z,11.85
